AAL1040 KBOS-KPVD
Flight info
| Callsign | AAL1040 |
|---|---|
| Flight time | 0h 18m |
| Altitude | 10000 |
| Route | PVD |
| Aircraft | B738/M-SDE2E3FGHIRWXY/LB1 |
Departure
| Time | 2026-05-07 06:01 |
|---|---|
| Airport | Boston Logan International Airport (KBOS) |
Arrival
| Time | 2026-05-07 06:20 |
|---|---|
| Airport | Rhode Island T. F. Green International Airport (KPVD) |
| Time | Latitude | Longitude | Altitude | Speed | Heading |
|---|---|---|---|---|---|
| 2026-05-07 05:45 | 42.36053 | -71.01955 | 25 ft | 0 kts | 28° |
| 2026-05-07 05:52 | 42.36051 | -71.01957 | 24 ft | 2 kts | 28° |
| 2026-05-07 05:53 | 42.36034 | -71.01968 | 28 ft | 3 kts | 27° |
| 2026-05-07 05:53 | 42.36017 | -71.01981 | 27 ft | 3 kts | 34° |
| 2026-05-07 05:53 | 42.36004 | -71.01997 | 27 ft | 3 kts | 73° |
| 2026-05-07 05:53 | 42.36002 | -71.02008 | 29 ft | 1 kts | 121° |
| 2026-05-07 05:55 | 42.35996 | -71.01994 | 29 ft | 3 kts | 121° |
| 2026-05-07 05:55 | 42.35981 | -71.01960 | 28 ft | 5 kts | 121° |
| 2026-05-07 05:56 | 42.35957 | -71.01907 | 24 ft | 8 kts | 121° |
| 2026-05-07 05:56 | 42.35926 | -71.01834 | 24 ft | 10 kts | 113° |
| 2026-05-07 05:56 | 42.35908 | -71.01734 | 24 ft | 12 kts | 101° |
| 2026-05-07 05:56 | 42.35892 | -71.01615 | 24 ft | 14 kts | 99° |
| 2026-05-07 05:57 | 42.35873 | -71.01479 | 27 ft | 16 kts | 101° |
| 2026-05-07 05:57 | 42.35853 | -71.01326 | 24 ft | 17 kts | 98° |
| 2026-05-07 05:57 | 42.35836 | -71.01157 | 24 ft | 19 kts | 97° |
| 2026-05-07 05:57 | 42.35819 | -71.00972 | 24 ft | 20 kts | 97° |
| 2026-05-07 05:58 | 42.35799 | -71.00784 | 28 ft | 20 kts | 99° |
| 2026-05-07 05:58 | 42.35776 | -71.00605 | 24 ft | 19 kts | 99° |
| 2026-05-07 05:58 | 42.35757 | -71.00429 | 27 ft | 19 kts | 97° |
| 2026-05-07 05:58 | 42.35762 | -71.00257 | 29 ft | 18 kts | 79° |
| 2026-05-07 05:59 | 42.35789 | -71.00095 | 28 ft | 17 kts | 77° |
| 2026-05-07 05:59 | 42.35816 | -70.99939 | 24 ft | 17 kts | 76° |
| 2026-05-07 05:59 | 42.35758 | -70.99816 | 27 ft | 16 kts | 134° |
| 2026-05-07 05:59 | 42.35681 | -70.99710 | 26 ft | 16 kts | 134° |
| 2026-05-07 06:00 | 42.35604 | -70.99610 | 24 ft | 15 kts | 136° |
| 2026-05-07 06:00 | 42.35588 | -70.99493 | 29 ft | 14 kts | 53° |
| 2026-05-07 06:00 | 42.35673 | -70.99457 | 25 ft | 14 kts | 332° |
| 2026-05-07 06:00 | 42.35742 | -70.99540 | 26 ft | 13 kts | 315° |
| 2026-05-07 06:01 | 42.35837 | -70.99668 | 24 ft | 40 kts | 315° |
| 2026-05-07 06:01 | 42.36248 | -71.00203 | 23 ft | 121 kts | 315° |
| 2026-05-07 06:01 | 42.37004 | -71.01154 | 252 ft | 166 kts | 327° |
| 2026-05-07 06:01 | 42.38086 | -71.01949 | 949 ft | 189 kts | 339° |
| 2026-05-07 06:02 | 42.39392 | -71.02480 | 1757 ft | 199 kts | 346° |
| 2026-05-07 06:02 | 42.40740 | -71.02917 | 2581 ft | 202 kts | 349° |
| 2026-05-07 06:02 | 42.42199 | -71.02996 | 2987 ft | 225 kts | 6° |
| 2026-05-07 06:02 | 42.43565 | -71.01789 | 3215 ft | 259 kts | 60° |
| 2026-05-07 06:03 | 42.44161 | -70.99376 | 3611 ft | 279 kts | 89° |
| 2026-05-07 06:03 | 42.43879 | -70.96777 | 4242 ft | 282 kts | 121° |
| 2026-05-07 06:03 | 42.42732 | -70.94744 | 5015 ft | 271 kts | 152° |
| 2026-05-07 06:03 | 42.41057 | -70.93811 | 5513 ft | 252 kts | 186° |
| 2026-05-07 06:04 | 42.39384 | -70.94173 | 5926 ft | 244 kts | 207° |
| 2026-05-07 06:04 | 42.37844 | -70.95125 | 5975 ft | 242 kts | 216° |
| 2026-05-07 06:04 | 42.36378 | -70.96258 | 5991 ft | 244 kts | 217° |
| 2026-05-07 06:04 | 42.34915 | -70.97418 | 5989 ft | 244 kts | 216° |
| 2026-05-07 06:05 | 42.33351 | -70.98351 | 6009 ft | 247 kts | 207° |
| 2026-05-07 06:05 | 42.31714 | -70.99078 | 6011 ft | 248 kts | 205° |
| 2026-05-07 06:05 | 42.30056 | -70.99767 | 6005 ft | 249 kts | 205° |
| 2026-05-07 06:05 | 42.28396 | -71.00447 | 6006 ft | 249 kts | 205° |
| 2026-05-07 06:06 | 42.26737 | -71.01125 | 5996 ft | 249 kts | 205° |
| 2026-05-07 06:06 | 42.25077 | -71.01803 | 5999 ft | 249 kts | 205° |
| 2026-05-07 06:06 | 42.23419 | -71.02482 | 6000 ft | 250 kts | 205° |
| 2026-05-07 06:06 | 42.21760 | -71.03160 | 5987 ft | 250 kts | 205° |
| 2026-05-07 06:07 | 42.20124 | -71.03831 | 6001 ft | 248 kts | 206° |
| 2026-05-07 06:07 | 42.19007 | -71.04289 | 6008 ft | 248 kts | 205° |
| 2026-05-07 06:07 | 42.16823 | -71.05184 | 6004 ft | 247 kts | 205° |
| 2026-05-07 06:07 | 42.15179 | -71.05858 | 5993 ft | 247 kts | 205° |
| 2026-05-07 06:08 | 42.13536 | -71.06531 | 5962 ft | 247 kts | 202° |
| 2026-05-07 06:08 | 42.11823 | -71.07235 | 6070 ft | 269 kts | 200° |
| 2026-05-07 06:08 | 42.10020 | -71.07973 | 6151 ft | 268 kts | 205° |
| 2026-05-07 06:08 | 42.08248 | -71.08695 | 6170 ft | 265 kts | 205° |
| 2026-05-07 06:09 | 42.06496 | -71.09407 | 6181 ft | 261 kts | 205° |
| 2026-05-07 06:09 | 42.04766 | -71.10109 | 6178 ft | 256 kts | 211° |
| 2026-05-07 06:09 | 42.03083 | -71.10790 | 6172 ft | 249 kts | 211° |
| 2026-05-07 06:09 | 42.01444 | -71.11477 | 6190 ft | 248 kts | 212° |
| 2026-05-07 06:10 | 41.99783 | -71.12163 | 6194 ft | 250 kts | 214° |
| 2026-05-07 06:10 | 41.98174 | -71.12788 | 6201 ft | 235 kts | 226° |
| 2026-05-07 06:10 | 41.96687 | -71.13408 | 6181 ft | 213 kts | 229° |
| 2026-05-07 06:10 | 41.95301 | -71.13951 | 6174 ft | 199 kts | 218° |
| 2026-05-07 06:11 | 41.93967 | -71.14491 | 5998 ft | 202 kts | 201° |
| 2026-05-07 06:11 | 41.92561 | -71.15068 | 6134 ft | 224 kts | 200° |
| 2026-05-07 06:11 | 41.90964 | -71.15702 | 6252 ft | 255 kts | 201° |
| 2026-05-07 06:11 | 41.89196 | -71.16422 | 6461 ft | 273 kts | 202° |
| 2026-05-07 06:12 | 41.87383 | -71.17167 | 6532 ft | 270 kts | 201° |
| 2026-05-07 06:12 | 41.85613 | -71.17890 | 6443 ft | 267 kts | 201° |
| 2026-05-07 06:12 | 41.83846 | -71.18608 | 6262 ft | 263 kts | 201° |
| 2026-05-07 06:12 | 41.82109 | -71.19310 | 6013 ft | 259 kts | 201° |
| 2026-05-07 06:13 | 41.80399 | -71.19999 | 5770 ft | 255 kts | 201° |
| 2026-05-07 06:13 | 41.78706 | -71.20680 | 5507 ft | 252 kts | 201° |
| 2026-05-07 06:13 | 41.77030 | -71.21352 | 5246 ft | 250 kts | 202° |
| 2026-05-07 06:13 | 41.75372 | -71.22016 | 4986 ft | 248 kts | 201° |
| 2026-05-07 06:14 | 41.73767 | -71.22658 | 4743 ft | 249 kts | 201° |
| 2026-05-07 06:14 | 41.72055 | -71.23337 | 4585 ft | 247 kts | 201° |
| 2026-05-07 06:14 | 41.70434 | -71.23979 | 4446 ft | 239 kts | 199° |
| 2026-05-07 06:14 | 41.68863 | -71.24602 | 4328 ft | 231 kts | 199° |
| 2026-05-07 06:15 | 41.67338 | -71.25213 | 4232 ft | 225 kts | 200° |
| 2026-05-07 06:15 | 41.65885 | -71.25800 | 4129 ft | 210 kts | 200° |
| 2026-05-07 06:15 | 41.64533 | -71.26351 | 3948 ft | 198 kts | 200° |
| 2026-05-07 06:15 | 41.63241 | -71.26883 | 3773 ft | 190 kts | 200° |
| 2026-05-07 06:16 | 41.62062 | -71.27547 | 3572 ft | 180 kts | 228° |
| 2026-05-07 06:16 | 41.61659 | -71.28491 | 3443 ft | 179 kts | 263° |
| 2026-05-07 06:16 | 41.61755 | -71.30649 | 3196 ft | 179 kts | 306° |
| 2026-05-07 06:16 | 41.62671 | -71.31735 | 2992 ft | 178 kts | 327° |
| 2026-05-07 06:17 | 41.63554 | -71.32894 | 2772 ft | 176 kts | 317° |
| 2026-05-07 06:17 | 41.64464 | -71.33982 | 2456 ft | 177 kts | 326° |
| 2026-05-07 06:17 | 41.65444 | -71.34998 | 2059 ft | 175 kts | 326° |
| 2026-05-07 06:17 | 41.66381 | -71.35990 | 1874 ft | 173 kts | 325° |
| 2026-05-07 06:18 | 41.67324 | -71.36996 | 1509 ft | 170 kts | 325° |
| 2026-05-07 06:18 | 41.68212 | -71.37947 | 1105 ft | 160 kts | 326° |
| 2026-05-07 06:18 | 41.69063 | -71.38851 | 788 ft | 152 kts | 326° |
| 2026-05-07 06:18 | 41.69613 | -71.39438 | 646 ft | 153 kts | 326° |
| 2026-05-07 06:19 | 41.70719 | -71.40616 | 375 ft | 151 kts | 326° |
| 2026-05-07 06:19 | 41.71565 | -71.41454 | 159 ft | 152 kts | 328° |
| 2026-05-07 06:19 | 41.72358 | -71.42324 | 55 ft | 145 kts | 318° |
| 2026-05-07 06:19 | 41.72844 | -71.42828 | 59 ft | 118 kts | 337° |
| 2026-05-07 06:20 | 41.72703 | -71.42427 | 51 ft | 83 kts | 8° |
| 2026-05-07 06:20 | 41.72939 | -71.42368 | 50 ft | 0 kts | 123° |
| 2026-05-07 06:21 | 41.72938 | -71.42367 | 55 ft | 1 kts | 123° |
| 2026-05-07 06:22 | 41.72797 | -71.42073 | 53 ft | 96 kts | 122° |
| 2026-05-07 06:22 | 41.71497 | -71.40900 | 1232 ft | 144 kts | 187° |
| 2026-05-07 06:22 | 41.71057 | -71.42549 | 1382 ft | 266 kts | 268° |
| 2026-05-07 06:23 | 41.72038 | -71.44492 | 2714 ft | 252 kts | 334° |
| 2026-05-07 06:23 | 41.73627 | -71.45281 | 2415 ft | 242 kts | 36° |
| 2026-05-07 06:23 | 41.74054 | -71.44557 | 1285 ft | 149 kts | 209° |
| 2026-05-07 06:23 | 41.74106 | -71.46046 | 2976 ft | 161 kts | 294° |
| 2026-05-07 06:24 | 41.74612 | -71.47528 | 3265 ft | 214 kts | 317° |
| 2026-05-07 06:24 | 41.74687 | -71.48845 | 2758 ft | 0 kts | 167° |
| 2026-05-07 06:24 | 41.74087 | -71.48425 | 5402 ft | 161 kts | 156° |